createdAt,value
2022-07-31T00:00:25.526Z,4.70
2022-07-31T00:02:52.172Z,6.22
2022-07-31T00:05:18.924Z,3.78
2022-07-31T00:07:45.834Z,10.57
2022-07-31T00:10:12.776Z,4.95
2022-07-31T00:12:39.540Z,3.63
2022-07-31T00:15:08.201Z,6.82
2022-07-31T00:17:34.990Z,3.63
2022-07-31T00:20:02.043Z,7.53
2022-07-31T00:22:28.987Z,6.30
2022-07-31T00:24:55.786Z,4.18
2022-07-31T00:27:23.526Z,5.85
2022-07-31T00:29:50.758Z,5.13
2022-07-31T00:32:17.482Z,3.28
2022-07-31T00:34:44.195Z,4.18
2022-07-31T00:37:10.884Z,4.22
2022-07-31T00:39:38.348Z,7.75
2022-07-31T00:42:05.769Z,7.18
2022-07-31T00:44:32.485Z,6.53
2022-07-31T00:46:59.097Z,8.45
2022-07-31T00:49:37.718Z,8.88
2022-07-31T00:52:05.381Z,4.07
2022-07-31T00:54:32.468Z,9.77
2022-07-31T00:56:59.167Z,9.45
2022-07-31T00:59:28.307Z,5.70
2022-07-31T01:01:55.175Z,7.70
2022-07-31T01:04:21.901Z,7.25
2022-07-31T01:06:49.307Z,6.28
2022-07-31T01:09:16.748Z,5.38
2022-07-31T01:12:08.449Z,6.47
2022-07-31T01:14:40.202Z,8.05
2022-07-31T01:17:08.779Z,3.90
2022-07-31T01:19:47.625Z,9.88
2022-07-31T01:22:33.338Z,9.30
2022-07-31T01:25:23.418Z,8.18
2022-07-31T01:28:08.837Z,6.78
2022-07-31T01:31:25.968Z,8.10
2022-07-31T01:34:01.251Z,10.73
2022-07-31T01:36:34.771Z,8.75
2022-07-31T01:39:02.425Z,8.07
2022-07-31T01:41:34.780Z,12.23
2022-07-31T01:44:05.292Z,7.45
2022-07-31T01:46:37.496Z,9.35
2022-07-31T01:49:09.739Z,11.02
2022-07-31T01:51:39.053Z,11.40
2022-07-31T01:54:06.396Z,12.27
2022-07-31T01:56:34.535Z,8.75
2022-07-31T01:59:02.316Z,17.88
2022-07-31T02:01:30.602Z,21.77
2022-07-31T02:04:00.397Z,18.55
2022-07-31T02:06:28.248Z,18.75
2022-07-31T02:08:56.372Z,17.42
2022-07-31T02:11:23.675Z,16.23
2022-07-31T02:13:52.086Z,17.77
2022-07-31T02:16:20.268Z,14.77
2022-07-31T02:18:50.660Z,12.82
2022-07-31T02:21:17.552Z,15.82
2022-07-31T02:23:44.263Z,9.95
2022-07-31T02:26:11.828Z,8.00
2022-07-31T02:28:41.925Z,11.13
2022-07-31T02:31:11.637Z,7.93
2022-07-31T02:33:42.031Z,5.53
2022-07-31T02:36:11.518Z,10.18
2022-07-31T02:38:40.741Z,9.52
2022-07-31T02:41:09.628Z,5.85
2022-07-31T02:43:36.950Z,8.30
2022-07-31T02:46:04.455Z,8.00
2022-07-31T02:48:31.934Z,8.25
2022-07-31T02:50:59.225Z,9.98
2022-07-31T02:53:27.025Z,7.68
2022-07-31T02:55:54.732Z,5.45
2022-07-31T02:58:21.424Z,6.97
2022-07-31T03:00:48.758Z,7.28
2022-07-31T03:03:15.607Z,5.57
2022-07-31T03:05:42.321Z,8.63
2022-07-31T03:08:09.233Z,6.30
2022-07-31T03:10:35.936Z,6.15
2022-07-31T03:13:03.901Z,6.28
2022-07-31T03:15:32.107Z,7.72
2022-07-31T03:17:59.330Z,5.40
2022-07-31T03:20:27.250Z,7.40
2022-07-31T03:22:54.425Z,9.70
2022-07-31T03:25:22.118Z,8.07
2022-07-31T03:27:56.775Z,4.68
2022-07-31T03:30:25.158Z,5.32
2022-07-31T03:32:53.243Z,6.25
2022-07-31T03:35:20.353Z,7.03
2022-07-31T03:37:47.007Z,6.13
2022-07-31T03:40:14.148Z,8.35
2022-07-31T03:42:41.266Z,10.93
2022-07-31T03:45:10.858Z,5.20
2022-07-31T03:47:37.733Z,4.90
2022-07-31T03:50:06.085Z,9.40
2022-07-31T03:52:32.893Z,7.18
2022-07-31T03:54:59.764Z,11.93
2022-07-31T03:57:31.093Z,8.15
2022-07-31T04:00:00.757Z,11.68
2022-07-31T04:02:28.265Z,9.52
2022-07-31T04:04:55.433Z,10.18
2022-07-31T04:07:22.132Z,12.23
2022-07-31T04:09:49.187Z,10.15
2022-07-31T04:12:16.321Z,14.57
2022-07-31T04:14:43.531Z,8.40
2022-07-31T04:17:10.305Z,18.48
2022-07-31T04:19:37.007Z,13.00
2022-07-31T04:22:04.368Z,13.32
2022-07-31T04:24:31.246Z,15.95
2022-07-31T04:26:58.297Z,16.67
2022-07-31T04:29:28.600Z,12.50
2022-07-31T04:31:55.851Z,14.10
2022-07-31T04:34:22.679Z,11.48
2022-07-31T04:36:49.464Z,16.35
2022-07-31T04:39:16.131Z,19.30
2022-07-31T04:41:43.047Z,13.20
2022-07-31T04:44:10.487Z,18.20
2022-07-31T04:46:37.364Z,13.40
2022-07-31T04:49:04.280Z,20.25
2022-07-31T04:51:31.137Z,15.15
2022-07-31T04:53:57.969Z,13.98
2022-07-31T04:56:43.113Z,16.65
2022-07-31T04:59:12.677Z,18.90
2022-07-31T05:01:41.684Z,16.83
2022-07-31T05:04:09.684Z,16.58
2022-07-31T05:06:44.408Z,17.67
2022-07-31T05:11:47.142Z,20.90
2022-07-31T05:14:15.344Z,30.65
2022-07-31T05:16:42.012Z,21.60
2022-07-31T05:19:13.616Z,18.55
2022-07-31T05:21:47.008Z,33.20
2022-07-31T05:24:32.583Z,20.27
2022-07-31T05:27:01.481Z,22.70
2022-07-31T05:29:28.143Z,22.83
2022-07-31T05:32:00.326Z,31.17
2022-07-31T05:34:31.121Z,27.90
2022-07-31T05:37:01.929Z,26.92
2022-07-31T05:39:29.365Z,25.70
2022-07-31T05:41:55.976Z,29.02
2022-07-31T05:44:22.660Z,42.50
2022-07-31T05:49:15.937Z,40.50
2022-07-31T05:51:46.745Z,29.83
2022-07-31T05:54:14.339Z,32.47
2022-07-31T05:56:41.082Z,32.15
2022-07-31T05:59:07.884Z,42.80
2022-07-31T06:01:34.587Z,33.47
2022-07-31T06:04:02.509Z,35.13
2022-07-31T06:06:29.195Z,34.05
2022-07-31T06:08:58.436Z,40.90
2022-07-31T06:11:28.876Z,31.40
2022-07-31T06:13:55.503Z,31.45
2022-07-31T06:16:22.133Z,42.42
2022-07-31T06:18:48.837Z,31.88
2022-07-31T06:23:41.000Z,24.55
2022-07-31T06:26:08.309Z,25.50
2022-07-31T06:28:47.653Z,27.00
2022-07-31T06:31:22.588Z,20.45
2022-07-31T06:33:50.848Z,27.33
2022-07-31T06:36:18.625Z,24.75
2022-07-31T06:38:46.024Z,25.35
2022-07-31T06:41:33.193Z,27.90
2022-07-31T06:43:59.829Z,27.10
2022-07-31T06:46:26.585Z,25.10
2022-07-31T06:48:53.308Z,27.42
2022-07-31T06:51:30.899Z,29.77
2022-07-31T06:54:02.130Z,43.80
2022-07-31T06:56:29.744Z,39.83
2022-07-31T06:58:56.892Z,44.50
2022-07-31T07:01:23.613Z,40.67
2022-07-31T07:03:50.344Z,33.22
2022-07-31T07:06:17.092Z,36.13
2022-07-31T07:08:43.756Z,32.92
2022-07-31T07:11:12.397Z,23.48
2022-07-31T07:13:45.681Z,32.15
2022-07-31T07:16:13.633Z,32.67
2022-07-31T07:18:40.321Z,32.90
2022-07-31T07:21:07.170Z,29.73
2022-07-31T07:23:33.871Z,32.00
2022-07-31T07:26:00.523Z,35.50
2022-07-31T07:28:30.262Z,34.17
2022-07-31T07:30:58.488Z,23.85
2022-07-31T07:33:41.711Z,28.42
2022-07-31T07:36:22.368Z,27.48
2022-07-31T07:38:56.016Z,32.65
2022-07-31T07:41:24.453Z,28.23
2022-07-31T07:43:52.394Z,34.17
2022-07-31T07:46:20.967Z,22.25
2022-07-31T07:48:47.598Z,26.55
2022-07-31T07:51:14.300Z,33.25
2022-07-31T07:53:40.953Z,39.13
2022-07-31T07:56:07.775Z,24.90
2022-07-31T07:58:34.590Z,29.90
2022-07-31T08:01:01.564Z,21.08
2022-07-31T08:03:50.377Z,33.45
2022-07-31T08:06:14.856Z,19.77
2022-07-31T08:08:41.453Z,21.80
2022-07-31T08:11:08.112Z,17.92
2022-07-31T08:13:34.727Z,18.42
2022-07-31T08:16:02.185Z,24.15
2022-07-31T08:18:29.887Z,33.55
2022-07-31T08:20:56.504Z,27.52
2022-07-31T08:23:23.215Z,19.55
2022-07-31T08:25:49.894Z,21.77
2022-07-31T08:28:19.485Z,17.50
2022-07-31T08:30:50.825Z,22.35
2022-07-31T08:33:17.494Z,27.30
2022-07-31T08:35:49.626Z,22.83
2022-07-31T08:38:18.527Z,21.55
2022-07-31T08:40:46.260Z,18.67
2022-07-31T08:46:02.814Z,19.15
2022-07-31T08:48:32.592Z,16.13
2022-07-31T08:51:03.283Z,26.40
2022-07-31T08:53:32.955Z,23.55
2022-07-31T08:56:00.352Z,21.95
2022-07-31T08:58:27.062Z,20.23
2022-07-31T09:00:54.491Z,16.55
2022-07-31T09:03:21.485Z,18.90
2022-07-31T09:05:48.155Z,22.02
2022-07-31T09:08:15.324Z,14.43
2022-07-31T09:10:46.284Z,15.73
2022-07-31T09:13:19.169Z,24.77
2022-07-31T09:15:46.531Z,18.58
2022-07-31T09:18:21.869Z,15.70
2022-07-31T09:21:02.272Z,10.65
2022-07-31T09:23:29.888Z,18.05
2022-07-31T09:26:00.144Z,23.30
2022-07-31T09:28:43.050Z,20.00
2022-07-31T09:31:11.639Z,14.45
2022-07-31T09:33:45.227Z,13.73
2022-07-31T09:36:13.694Z,15.43
2022-07-31T09:38:42.735Z,26.27
2022-07-31T09:41:56.012Z,12.30
2022-07-31T09:44:09.544Z,22.98
2022-07-31T09:46:42.173Z,19.52
2022-07-31T09:49:09.394Z,17.50
2022-07-31T09:51:47.019Z,13.07
2022-07-31T09:54:21.937Z,11.82
2022-07-31T09:56:50.097Z,14.00
2022-07-31T09:59:17.360Z,10.95
2022-07-31T10:01:48.587Z,16.20
2022-07-31T10:04:18.084Z,12.48
2022-07-31T10:06:48.841Z,9.75
2022-07-31T10:09:17.674Z,14.10
2022-07-31T10:11:46.027Z,13.32
2022-07-31T10:14:20.979Z,16.45
2022-07-31T10:16:50.664Z,14.52
2022-07-31T10:19:19.000Z,18.08
2022-07-31T10:21:56.643Z,9.02
2022-07-31T10:24:28.337Z,12.23
2022-07-31T10:27:10.842Z,11.15
2022-07-31T10:29:40.870Z,14.60
2022-07-31T10:32:08.733Z,12.98
2022-07-31T10:34:35.892Z,13.35
2022-07-31T10:37:18.876Z,13.48
2022-07-31T10:40:03.784Z,11.55
2022-07-31T10:45:09.245Z,6.65
2022-07-31T10:47:36.110Z,13.63
2022-07-31T10:50:04.779Z,15.55
2022-07-31T10:52:33.294Z,19.42
2022-07-31T10:55:01.819Z,10.48
2022-07-31T10:57:33.671Z,10.95
2022-07-31T11:00:14.872Z,10.00
2022-07-31T11:02:41.576Z,9.98
2022-07-31T11:05:13.577Z,12.75
2022-07-31T11:07:45.785Z,9.43
2022-07-31T11:10:15.189Z,17.20
2022-07-31T11:12:43.757Z,13.07
2022-07-31T11:15:22.122Z,12.55
2022-07-31T11:18:24.057Z,13.90
2022-07-31T11:20:35.897Z,15.50
2022-07-31T11:23:08.662Z,9.38
2022-07-31T11:25:36.939Z,12.10
2022-07-31T11:28:27.356Z,10.60
2022-07-31T11:30:58.284Z,9.98
2022-07-31T11:33:41.673Z,11.68
2022-07-31T11:36:24.514Z,12.02
2022-07-31T11:38:53.044Z,11.15
2022-07-31T11:41:23.126Z,12.15
2022-07-31T11:43:52.269Z,10.75
2022-07-31T11:46:27.716Z,11.65
2022-07-31T11:48:55.815Z,8.85
2022-07-31T11:51:23.628Z,6.70
2022-07-31T11:53:56.839Z,13.57
2022-07-31T11:56:25.903Z,13.85
2022-07-31T11:58:55.150Z,10.48
2022-07-31T12:01:29.946Z,13.23
2022-07-31T12:04:01.625Z,10.43
2022-07-31T12:06:36.525Z,7.95
2022-07-31T12:09:04.139Z,9.68
2022-07-31T12:11:31.006Z,8.15
2022-07-31T12:13:59.276Z,7.43
2022-07-31T12:16:25.955Z,11.13
2022-07-31T12:19:00.760Z,8.60
2022-07-31T12:21:35.742Z,11.43
2022-07-31T12:24:09.627Z,6.57
2022-07-31T12:26:36.261Z,8.95
2022-07-31T12:29:09.961Z,10.10
2022-07-31T12:31:53.717Z,9.30
2022-07-31T12:34:31.681Z,11.15
2022-07-31T12:37:02.013Z,10.80
2022-07-31T12:39:54.084Z,7.32
2022-07-31T12:42:30.473Z,11.98
2022-07-31T12:45:01.050Z,7.75
2022-07-31T12:47:45.620Z,8.55
2022-07-31T12:50:18.092Z,9.40
2022-07-31T12:52:45.251Z,11.77
2022-07-31T12:55:17.142Z,14.70
2022-07-31T12:57:50.391Z,6.40
2022-07-31T13:00:19.483Z,7.53
2022-07-31T13:02:46.201Z,5.22
2022-07-31T13:05:16.176Z,5.53
2022-07-31T13:07:42.821Z,10.85
2022-07-31T13:10:19.981Z,7.45
2022-07-31T13:12:50.916Z,6.43
2022-07-31T13:15:31.119Z,9.40
2022-07-31T13:18:05.396Z,11.82
2022-07-31T13:20:39.672Z,11.07
2022-07-31T13:23:06.297Z,11.73
2022-07-31T13:25:32.997Z,11.10
2022-07-31T13:27:59.940Z,10.35
2022-07-31T13:30:28.251Z,10.75
2022-07-31T13:32:54.861Z,8.82
2022-07-31T13:35:28.255Z,5.55
2022-07-31T13:37:56.127Z,9.13
2022-07-31T13:40:42.900Z,9.20
2022-07-31T13:43:09.901Z,9.35
2022-07-31T13:45:36.607Z,9.00
2022-07-31T13:48:08.709Z,8.73
2022-07-31T13:50:40.226Z,9.20
2022-07-31T13:53:07.209Z,11.32
2022-07-31T13:55:33.867Z,10.25
2022-07-31T13:58:01.213Z,11.43
2022-07-31T14:00:29.665Z,8.13
2022-07-31T14:02:57.143Z,7.32
2022-07-31T14:05:26.452Z,7.68
2022-07-31T14:07:55.943Z,7.00
2022-07-31T14:10:23.152Z,7.95
2022-07-31T14:12:50.442Z,6.07
2022-07-31T14:15:28.595Z,10.95
2022-07-31T14:17:56.873Z,10.23
2022-07-31T14:20:23.674Z,11.15
2022-07-31T14:22:50.357Z,10.55
2022-07-31T14:25:17.420Z,8.10
2022-07-31T14:27:45.792Z,14.35
2022-07-31T14:30:15.079Z,7.82
2022-07-31T14:32:47.404Z,5.75
2022-07-31T14:35:14.786Z,7.57
2022-07-31T14:37:44.402Z,10.45
2022-07-31T14:40:14.267Z,11.55
2022-07-31T14:42:43.424Z,10.23
2022-07-31T14:45:11.248Z,9.18
2022-07-31T14:47:40.829Z,8.15
2022-07-31T14:50:12.013Z,11.35
2022-07-31T14:52:40.435Z,11.20
2022-07-31T14:55:07.703Z,10.30
2022-07-31T14:57:34.367Z,12.75
2022-07-31T15:00:01.608Z,11.82
2022-07-31T15:02:28.420Z,10.98
2022-07-31T15:04:55.410Z,12.25
2022-07-31T15:07:43.808Z,11.73
2022-07-31T15:10:12.340Z,12.07
2022-07-31T15:12:39.588Z,8.48
2022-07-31T15:15:07.619Z,16.98
2022-07-31T15:17:34.421Z,8.75
2022-07-31T15:20:03.826Z,11.70
2022-07-31T15:22:30.759Z,11.02
2022-07-31T15:24:57.450Z,9.35
2022-07-31T15:27:24.912Z,10.23
2022-07-31T15:30:03.612Z,6.90
2022-07-31T15:32:33.237Z,12.20
2022-07-31T15:34:59.903Z,15.32
2022-07-31T15:37:26.542Z,11.60
2022-07-31T15:40:02.613Z,15.85
2022-07-31T15:42:33.970Z,10.63
2022-07-31T15:45:00.938Z,12.60
2022-07-31T15:47:27.620Z,14.02
2022-07-31T15:49:54.330Z,8.63
2022-07-31T15:52:21.120Z,8.68
2022-07-31T15:54:51.708Z,10.65
2022-07-31T15:57:21.103Z,17.13
2022-07-31T15:59:48.580Z,8.07
2022-07-31T16:02:15.304Z,19.83
2022-07-31T16:04:52.793Z,13.25
2022-07-31T16:08:30.359Z,16.20
2022-07-31T16:10:15.299Z,8.45
2022-07-31T16:12:46.796Z,12.18
2022-07-31T16:15:14.197Z,9.30
2022-07-31T16:17:41.418Z,11.65
2022-07-31T16:20:25.593Z,11.65
2022-07-31T16:22:55.840Z,12.98
2022-07-31T16:25:23.827Z,13.75
2022-07-31T16:27:50.581Z,17.65
2022-07-31T16:30:17.260Z,10.95
2022-07-31T16:32:44.184Z,8.45
2022-07-31T16:35:11.927Z,11.32
2022-07-31T16:37:52.222Z,7.50
2022-07-31T16:40:28.245Z,10.63
2022-07-31T16:42:56.368Z,11.27
2022-07-31T16:45:23.264Z,10.77
2022-07-31T16:47:53.042Z,8.23
2022-07-31T16:50:22.292Z,9.38
2022-07-31T16:52:56.050Z,13.13
2022-07-31T16:55:59.620Z,11.07
2022-07-31T16:58:18.941Z,14.93
2022-07-31T17:00:51.768Z,10.82
2022-07-31T17:03:58.779Z,11.98
2022-07-31T17:06:03.751Z,5.65
2022-07-31T17:08:35.976Z,12.00
2022-07-31T17:14:01.907Z,12.68
2022-07-31T17:16:31.042Z,17.10
2022-07-31T17:18:57.960Z,11.65
2022-07-31T17:23:59.709Z,12.23
2022-07-31T17:26:26.544Z,14.95
2022-07-31T17:29:02.417Z,20.50
2022-07-31T17:31:29.094Z,21.02
2022-07-31T17:34:00.015Z,18.27
2022-07-31T17:36:28.933Z,16.05
2022-07-31T17:38:56.889Z,15.15
2022-07-31T17:41:25.256Z,7.95
2022-07-31T17:43:55.932Z,15.52
2022-07-31T17:46:28.313Z,17.30
2022-07-31T17:49:11.565Z,14.32
2022-07-31T17:51:57.558Z,9.27
2022-07-31T17:54:27.986Z,12.40
2022-07-31T17:56:54.668Z,12.80
2022-07-31T17:59:23.952Z,16.50
2022-07-31T18:01:59.449Z,13.27
2022-07-31T18:04:27.585Z,13.93
2022-07-31T18:06:54.995Z,12.38
2022-07-31T18:09:23.505Z,11.73
2022-07-31T18:11:54.274Z,8.98
2022-07-31T18:14:24.204Z,10.10
2022-07-31T18:16:51.887Z,13.10
2022-07-31T18:19:18.720Z,12.65
2022-07-31T18:21:45.354Z,8.50
2022-07-31T18:24:11.978Z,7.97
2022-07-31T18:26:39.075Z,15.05
2022-07-31T18:29:06.063Z,14.75
2022-07-31T18:31:35.480Z,17.48
2022-07-31T18:34:04.149Z,11.60
2022-07-31T18:36:31.882Z,9.75
2022-07-31T18:38:58.654Z,15.52
2022-07-31T18:44:21.996Z,12.23
2022-07-31T18:46:49.065Z,12.23
2022-07-31T18:51:01.287Z,12.88
2022-07-31T18:52:03.283Z,15.13
2022-07-31T18:54:30.373Z,19.52
2022-07-31T18:56:57.112Z,12.48
2022-07-31T18:59:23.877Z,14.63
2022-07-31T19:01:50.518Z,12.98
2022-07-31T19:04:17.187Z,9.52
2022-07-31T19:06:45.071Z,9.30
2022-07-31T19:09:11.865Z,7.30
2022-07-31T19:11:38.477Z,9.10
2022-07-31T19:14:05.163Z,8.25
2022-07-31T19:16:31.844Z,9.38
2022-07-31T19:18:59.422Z,12.48
2022-07-31T19:21:42.559Z,17.33
2022-07-31T19:24:09.777Z,15.10
2022-07-31T19:26:39.000Z,15.95
2022-07-31T19:29:05.686Z,13.98
2022-07-31T19:31:32.404Z,14.18
2022-07-31T19:33:59.198Z,13.77
2022-07-31T19:36:25.936Z,13.98
2022-07-31T19:38:52.598Z,16.20
2022-07-31T19:41:20.853Z,9.15
2022-07-31T19:43:47.618Z,15.68
2022-07-31T19:46:14.399Z,9.27
2022-07-31T19:48:43.401Z,14.52
2022-07-31T19:51:11.025Z,16.40
2022-07-31T19:53:38.061Z,13.82
2022-07-31T19:56:06.146Z,16.80
2022-07-31T19:58:34.576Z,15.27
2022-07-31T20:01:02.310Z,18.30
2022-07-31T20:03:29.497Z,14.80
2022-07-31T20:05:56.747Z,17.63
2022-07-31T20:08:23.783Z,21.13
2022-07-31T20:10:50.534Z,12.90
2022-07-31T20:13:18.447Z,13.23
2022-07-31T20:15:52.166Z,16.90
2022-07-31T20:21:03.563Z,14.52
2022-07-31T20:23:31.041Z,15.05
2022-07-31T20:25:57.892Z,21.75
2022-07-31T20:28:26.631Z,20.92
2022-07-31T20:30:53.565Z,12.20
2022-07-31T20:33:20.389Z,21.15
2022-07-31T20:35:49.428Z,18.98
2022-07-31T20:38:25.789Z,19.77
2022-07-31T20:40:55.648Z,13.52
2022-07-31T20:43:24.577Z,22.48
2022-07-31T20:45:51.504Z,15.88
2022-07-31T20:48:18.188Z,20.52
2022-07-31T20:50:47.752Z,20.80
2022-07-31T20:53:15.507Z,32.78
2022-07-31T20:55:46.625Z,22.85
2022-07-31T20:58:13.681Z,24.63
2022-07-31T21:00:41.014Z,23.00
2022-07-31T21:03:07.650Z,30.25
2022-07-31T21:05:34.284Z,23.25
2022-07-31T21:08:01.041Z,28.20
2022-07-31T21:10:29.683Z,18.52
2022-07-31T21:12:57.129Z,26.73
2022-07-31T21:15:40.774Z,28.58
2022-07-31T21:18:16.779Z,30.13
2022-07-31T21:20:52.341Z,30.13
2022-07-31T21:23:21.958Z,21.52
2022-07-31T21:25:48.974Z,24.38
2022-07-31T21:28:15.802Z,12.90
2022-07-31T21:30:42.641Z,25.20
2022-07-31T21:33:09.839Z,34.22
2022-07-31T21:35:39.078Z,30.15
2022-07-31T21:38:10.297Z,28.27
2022-07-31T21:40:38.786Z,27.80
2022-07-31T21:43:05.758Z,30.50
2022-07-31T21:45:49.637Z,32.38
2022-07-31T21:48:20.914Z,30.85
2022-07-31T21:50:47.708Z,27.67
2022-07-31T21:53:14.412Z,31.63
2022-07-31T21:55:41.244Z,30.35
2022-07-31T21:58:08.992Z,38.75
2022-07-31T22:00:36.668Z,30.30
2022-07-31T22:03:04.568Z,23.27
2022-07-31T22:05:50.528Z,33.15
2022-07-31T22:08:17.848Z,29.45
2022-07-31T22:10:44.875Z,23.02
2022-07-31T22:13:11.935Z,35.75
2022-07-31T22:15:51.333Z,27.77
2022-07-31T22:18:27.081Z,30.33
2022-07-31T22:20:54.069Z,35.28
2022-07-31T22:23:21.092Z,28.63
2022-07-31T22:25:51.115Z,32.72
2022-07-31T22:28:19.940Z,29.60
2022-07-31T22:30:47.299Z,31.27
2022-07-31T22:33:14.297Z,36.20
2022-07-31T22:35:41.097Z,35.63
2022-07-31T22:38:08.541Z,34.65
2022-07-31T22:40:35.439Z,28.20
2022-07-31T22:43:03.306Z,24.23
2022-07-31T22:45:30.401Z,30.65
2022-07-31T22:47:57.944Z,13.25
2022-07-31T22:50:25.164Z,14.77
2022-07-31T22:52:52.749Z,15.15
2022-07-31T22:55:19.942Z,15.35
2022-07-31T22:57:46.651Z,14.07
2022-07-31T23:00:15.034Z,17.77
2022-07-31T23:02:43.203Z,12.40
2022-07-31T23:05:10.535Z,12.60
2022-07-31T23:07:37.807Z,10.82
2022-07-31T23:10:08.532Z,15.50
2022-07-31T23:12:35.436Z,10.80
2022-07-31T23:15:02.225Z,13.45
2022-07-31T23:17:28.953Z,12.65
2022-07-31T23:19:56.056Z,15.40
2022-07-31T23:22:33.305Z,10.30
2022-07-31T23:25:05.723Z,9.45
2022-07-31T23:27:33.430Z,12.77
2022-07-31T23:30:00.516Z,11.63
2022-07-31T23:32:28.266Z,11.23
2022-07-31T23:34:55.019Z,12.75
2022-07-31T23:37:21.662Z,7.53
2022-07-31T23:39:48.331Z,9.48
2022-07-31T23:42:33.607Z,9.93
2022-07-31T23:45:00.282Z,10.85
2022-07-31T23:47:45.239Z,7.47
2022-07-31T23:50:14.281Z,10.85
2022-07-31T23:52:41.520Z,9.02
2022-07-31T23:55:08.710Z,10.18
2022-07-31T23:57:36.234Z,9.25
